sensor_id;sensor_type;location;lat;lon;timestamp;temperature;humidity
516;DHT22;244;48.508;9.052;2023-06-14T00:01:38;16.00;1.00
516;DHT22;244;48.508;9.052;2023-06-14T00:04:05;15.90;1.00
516;DHT22;244;48.508;9.052;2023-06-14T00:06:35;15.90;1.00
516;DHT22;244;48.508;9.052;2023-06-14T00:09:02;15.90;1.00
516;DHT22;244;48.508;9.052;2023-06-14T00:11:30;15.80;1.00
516;DHT22;244;48.508;9.052;2023-06-14T00:13:57;15.80;1.00
516;DHT22;244;48.508;9.052;2023-06-14T00:16:24;15.80;1.00
516;DHT22;244;48.508;9.052;2023-06-14T00:18:51;15.70;1.00
516;DHT22;244;48.508;9.052;2023-06-14T00:21:20;15.70;1.00
516;DHT22;244;48.508;9.052;2023-06-14T00:23:48;15.60;1.00
516;DHT22;244;48.508;9.052;2023-06-14T00:26:15;15.60;1.00
516;DHT22;244;48.508;9.052;2023-06-14T00:28:42;15.50;1.00
516;DHT22;244;48.508;9.052;2023-06-14T00:31:09;15.50;1.00
516;DHT22;244;48.508;9.052;2023-06-14T00:33:36;15.50;1.00
516;DHT22;244;48.508;9.052;2023-06-14T00:36:03;15.40;1.00
516;DHT22;244;48.508;9.052;2023-06-14T00:38:30;15.40;1.00
516;DHT22;244;48.508;9.052;2023-06-14T00:40:58;15.30;1.00
516;DHT22;244;48.508;9.052;2023-06-14T00:43:25;15.30;1.00
516;DHT22;244;48.508;9.052;2023-06-14T00:45:52;15.20;1.00
516;DHT22;244;48.508;9.052;2023-06-14T00:48:19;15.20;1.00
516;DHT22;244;48.508;9.052;2023-06-14T00:50:46;15.20;1.00
516;DHT22;244;48.508;9.052;2023-06-14T00:53:14;15.10;1.00
516;DHT22;244;48.508;9.052;2023-06-14T00:55:43;15.00;1.00
516;DHT22;244;48.508;9.052;2023-06-14T00:58:11;15.00;1.00
516;DHT22;244;48.508;9.052;2023-06-14T01:00:38;15.00;1.00
516;DHT22;244;48.508;9.052;2023-06-14T01:03:05;14.90;1.00
516;DHT22;244;48.508;9.052;2023-06-14T01:05:32;14.90;1.00
516;DHT22;244;48.508;9.052;2023-06-14T01:08:13;14.80;1.00
516;DHT22;244;48.508;9.052;2023-06-14T01:10:46;14.70;1.00
516;DHT22;244;48.508;9.052;2023-06-14T01:13:20;14.70;1.00
516;DHT22;244;48.508;9.052;2023-06-14T01:15:47;14.60;1.00
516;DHT22;244;48.508;9.052;2023-06-14T01:18:14;14.60;1.00
516;DHT22;244;48.508;9.052;2023-06-14T01:20:44;14.50;1.00
516;DHT22;244;48.508;9.052;2023-06-14T01:23:16;14.50;1.00
516;DHT22;244;48.508;9.052;2023-06-14T01:25:43;14.50;1.00
516;DHT22;244;48.508;9.052;2023-06-14T01:28:10;14.40;1.00
516;DHT22;244;48.508;9.052;2023-06-14T01:30:40;14.40;1.10
516;DHT22;244;48.508;9.052;2023-06-14T01:33:12;14.40;1.30
516;DHT22;244;48.508;9.052;2023-06-14T01:35:40;14.30;1.30
516;DHT22;244;48.508;9.052;2023-06-14T01:38:07;14.30;1.50
516;DHT22;244;48.508;9.052;2023-06-14T01:40:36;14.30;1.60
516;DHT22;244;48.508;9.052;2023-06-14T01:43:05;14.30;1.70
516;DHT22;244;48.508;9.052;2023-06-14T01:45:33;14.30;1.80
516;DHT22;244;48.508;9.052;2023-06-14T01:48:00;14.20;1.80
516;DHT22;244;48.508;9.052;2023-06-14T01:50:28;14.20;1.90
516;DHT22;244;48.508;9.052;2023-06-14T01:52:56;14.20;1.90
516;DHT22;244;48.508;9.052;2023-06-14T01:55:23;14.10;2.00
516;DHT22;244;48.508;9.052;2023-06-14T01:57:54;14.10;2.10
516;DHT22;244;48.508;9.052;2023-06-14T02:00:21;14.10;2.20
516;DHT22;244;48.508;9.052;2023-06-14T02:02:48;14.10;2.40
516;DHT22;244;48.508;9.052;2023-06-14T02:05:15;14.00;2.50
516;DHT22;244;48.508;9.052;2023-06-14T02:07:44;14.00;2.50
516;DHT22;244;48.508;9.052;2023-06-14T02:10:11;14.00;2.50
516;DHT22;244;48.508;9.052;2023-06-14T02:12:38;13.90;2.50
516;DHT22;244;48.508;9.052;2023-06-14T02:15:08;13.90;2.50
516;DHT22;244;48.508;9.052;2023-06-14T02:17:35;13.90;2.50
516;DHT22;244;48.508;9.052;2023-06-14T02:20:03;13.90;2.50
516;DHT22;244;48.508;9.052;2023-06-14T02:22:30;13.80;2.50
516;DHT22;244;48.508;9.052;2023-06-14T02:24:57;13.80;2.50
516;DHT22;244;48.508;9.052;2023-06-14T02:27:24;13.80;2.50
516;DHT22;244;48.508;9.052;2023-06-14T02:29:51;13.70;2.50
516;DHT22;244;48.508;9.052;2023-06-14T02:32:19;13.70;2.50
516;DHT22;244;48.508;9.052;2023-06-14T02:34:46;13.70;2.50
516;DHT22;244;48.508;9.052;2023-06-14T02:37:15;13.60;2.50
516;DHT22;244;48.508;9.052;2023-06-14T02:39:42;13.60;2.50
516;DHT22;244;48.508;9.052;2023-06-14T02:42:09;13.50;2.50
516;DHT22;244;48.508;9.052;2023-06-14T02:44:36;13.50;2.60
516;DHT22;244;48.508;9.052;2023-06-14T02:47:03;13.50;2.80
516;DHT22;244;48.508;9.052;2023-06-14T02:49:31;13.40;2.80
516;DHT22;244;48.508;9.052;2023-06-14T02:51:58;13.40;2.90
516;DHT22;244;48.508;9.052;2023-06-14T02:54:25;13.40;3.00
516;DHT22;244;48.508;9.052;2023-06-14T02:56:52;13.30;3.00
516;DHT22;244;48.508;9.052;2023-06-14T02:59:19;13.30;3.00
516;DHT22;244;48.508;9.052;2023-06-14T03:01:47;13.30;3.10
516;DHT22;244;48.508;9.052;2023-06-14T03:04:14;13.30;3.30
516;DHT22;244;48.508;9.052;2023-06-14T03:06:43;13.20;3.30
516;DHT22;244;48.508;9.052;2023-06-14T03:09:15;13.20;3.50
516;DHT22;244;48.508;9.052;2023-06-14T03:11:42;13.20;3.50
516;DHT22;244;48.508;9.052;2023-06-14T03:14:09;13.10;3.60
516;DHT22;244;48.508;9.052;2023-06-14T03:16:37;13.10;3.80
516;DHT22;244;48.508;9.052;2023-06-14T03:19:03;13.10;4.00
516;DHT22;244;48.508;9.052;2023-06-14T03:21:30;13.10;4.10
516;DHT22;244;48.508;9.052;2023-06-14T03:23:59;13.00;4.20
516;DHT22;244;48.508;9.052;2023-06-14T03:26:26;13.00;4.30
516;DHT22;244;48.508;9.052;2023-06-14T03:28:53;13.00;4.50
516;DHT22;244;48.508;9.052;2023-06-14T03:31:20;13.00;4.70
516;DHT22;244;48.508;9.052;2023-06-14T03:33:47;12.90;4.70
516;DHT22;244;48.508;9.052;2023-06-14T03:36:14;12.90;4.80
516;DHT22;244;48.508;9.052;2023-06-14T03:38:40;12.80;4.80
516;DHT22;244;48.508;9.052;2023-06-14T03:41:09;12.80;5.00
516;DHT22;244;48.508;9.052;2023-06-14T03:43:35;12.80;5.10
516;DHT22;244;48.508;9.052;2023-06-14T03:46:02;12.80;5.30
516;DHT22;244;48.508;9.052;2023-06-14T03:48:29;12.80;5.40
516;DHT22;244;48.508;9.052;2023-06-14T03:50:56;12.80;5.60
516;DHT22;244;48.508;9.052;2023-06-14T03:53:23;12.80;5.60
516;DHT22;244;48.508;9.052;2023-06-14T03:55:50;12.80;5.60
516;DHT22;244;48.508;9.052;2023-06-14T03:58:20;12.80;6.30
516;DHT22;244;48.508;9.052;2023-06-14T04:00:47;12.80;5.80
516;DHT22;244;48.508;9.052;2023-06-14T04:03:14;12.90;5.90
516;DHT22;244;48.508;9.052;2023-06-14T04:05:42;12.90;5.90
516;DHT22;244;48.508;9.052;2023-06-14T04:08:10;12.90;5.80
516;DHT22;244;48.508;9.052;2023-06-14T04:10:40;13.00;5.80
516;DHT22;244;48.508;9.052;2023-06-14T04:13:07;13.00;5.70
516;DHT22;244;48.508;9.052;2023-06-14T04:15:38;13.00;5.60
516;DHT22;244;48.508;9.052;2023-06-14T04:18:07;13.00;5.40
516;DHT22;244;48.508;9.052;2023-06-14T04:20:34;13.00;5.30
516;DHT22;244;48.508;9.052;2023-06-14T04:23:11;13.00;5.20
516;DHT22;244;48.508;9.052;2023-06-14T04:25:38;13.10;5.20
516;DHT22;244;48.508;9.052;2023-06-14T04:28:06;13.10;5.30
516;DHT22;244;48.508;9.052;2023-06-14T04:30:34;13.10;5.10
516;DHT22;244;48.508;9.052;2023-06-14T04:33:05;13.20;5.20
516;DHT22;244;48.508;9.052;2023-06-14T04:35:32;13.20;5.20
516;DHT22;244;48.508;9.052;2023-06-14T04:38:01;13.30;5.30
516;DHT22;244;48.508;9.052;2023-06-14T04:40:30;13.30;5.20
516;DHT22;244;48.508;9.052;2023-06-14T04:42:57;13.40;5.10
516;DHT22;244;48.508;9.052;2023-06-14T04:45:23;13.40;5.10
516;DHT22;244;48.508;9.052;2023-06-14T04:47:58;13.50;5.00
516;DHT22;244;48.508;9.052;2023-06-14T04:50:27;13.50;5.00
516;DHT22;244;48.508;9.052;2023-06-14T04:52:55;13.60;4.90
516;DHT22;244;48.508;9.052;2023-06-14T04:55:22;13.60;4.90
516;DHT22;244;48.508;9.052;2023-06-14T04:57:50;13.70;4.80
516;DHT22;244;48.508;9.052;2023-06-14T05:00:19;13.70;4.70
516;DHT22;244;48.508;9.052;2023-06-14T05:02:46;13.80;4.70
516;DHT22;244;48.508;9.052;2023-06-14T05:05:14;13.80;4.60
516;DHT22;244;48.508;9.052;2023-06-14T05:07:44;13.90;4.60
516;DHT22;244;48.508;9.052;2023-06-14T05:10:11;13.90;4.50
516;DHT22;244;48.508;9.052;2023-06-14T05:12:38;14.00;4.50
516;DHT22;244;48.508;9.052;2023-06-14T05:15:07;14.00;4.50
516;DHT22;244;48.508;9.052;2023-06-14T05:17:34;14.10;4.40
516;DHT22;244;48.508;9.052;2023-06-14T05:20:02;14.10;4.30
516;DHT22;244;48.508;9.052;2023-06-14T05:22:30;14.20;4.30
516;DHT22;244;48.508;9.052;2023-06-14T05:24:59;14.30;4.30
516;DHT22;244;48.508;9.052;2023-06-14T05:27:25;14.30;4.30
516;DHT22;244;48.508;9.052;2023-06-14T05:29:52;14.40;4.40
516;DHT22;244;48.508;9.052;2023-06-14T05:32:21;14.50;4.30
516;DHT22;244;48.508;9.052;2023-06-14T05:34:48;14.50;4.20
516;DHT22;244;48.508;9.052;2023-06-14T05:37:15;14.60;4.30
516;DHT22;244;48.508;9.052;2023-06-14T05:39:42;14.70;4.10
516;DHT22;244;48.508;9.052;2023-06-14T05:42:11;14.80;4.10
516;DHT22;244;48.508;9.052;2023-06-14T05:44:38;14.80;4.00
516;DHT22;244;48.508;9.052;2023-06-14T05:47:05;14.90;4.00
516;DHT22;244;48.508;9.052;2023-06-14T05:49:32;14.90;3.90
516;DHT22;244;48.508;9.052;2023-06-14T05:51:58;15.00;3.80
516;DHT22;244;48.508;9.052;2023-06-14T05:54:25;15.10;3.80
516;DHT22;244;48.508;9.052;2023-06-14T05:56:52;15.20;3.70
516;DHT22;244;48.508;9.052;2023-06-14T05:59:21;15.30;4.30
516;DHT22;244;48.508;9.052;2023-06-14T06:01:48;15.40;3.60
516;DHT22;244;48.508;9.052;2023-06-14T06:04:15;15.40;3.50
516;DHT22;244;48.508;9.052;2023-06-14T06:06:42;15.50;3.40
516;DHT22;244;48.508;9.052;2023-06-14T06:09:08;15.60;3.40
516;DHT22;244;48.508;9.052;2023-06-14T06:11:35;15.70;3.40
516;DHT22;244;48.508;9.052;2023-06-14T06:14:02;15.80;3.30
516;DHT22;244;48.508;9.052;2023-06-14T06:16:30;15.80;3.20
516;DHT22;244;48.508;9.052;2023-06-14T06:18:57;15.90;3.10
516;DHT22;244;48.508;9.052;2023-06-14T06:21:24;16.00;3.00
516;DHT22;244;48.508;9.052;2023-06-14T06:23:51;16.10;2.90
516;DHT22;244;48.508;9.052;2023-06-14T06:26:18;16.20;2.90
516;DHT22;244;48.508;9.052;2023-06-14T06:28:44;16.30;2.80
516;DHT22;244;48.508;9.052;2023-06-14T06:31:11;16.30;2.70
516;DHT22;244;48.508;9.052;2023-06-14T06:33:40;16.40;2.60
516;DHT22;244;48.508;9.052;2023-06-14T06:36:07;16.50;2.60
516;DHT22;244;48.508;9.052;2023-06-14T06:38:34;16.60;2.50
516;DHT22;244;48.508;9.052;2023-06-14T06:41:01;16.70;2.40
516;DHT22;244;48.508;9.052;2023-06-14T06:43:28;16.80;2.30
516;DHT22;244;48.508;9.052;2023-06-14T06:45:54;16.90;2.30
516;DHT22;244;48.508;9.052;2023-06-14T06:48:21;16.90;2.10
516;DHT22;244;48.508;9.052;2023-06-14T06:50:49;17.00;2.00
516;DHT22;244;48.508;9.052;2023-06-14T06:53:16;17.10;1.80
516;DHT22;244;48.508;9.052;2023-06-14T06:55:44;17.20;1.60
516;DHT22;244;48.508;9.052;2023-06-14T06:58:12;17.30;1.70
516;DHT22;244;48.508;9.052;2023-06-14T07:00:39;17.40;1.80
516;DHT22;244;48.508;9.052;2023-06-14T07:03:06;17.50;1.80
516;DHT22;244;48.508;9.052;2023-06-14T07:05:33;17.60;1.50
516;DHT22;244;48.508;9.052;2023-06-14T07:08:01;17.70;1.20
516;DHT22;244;48.508;9.052;2023-06-14T07:10:29;17.80;1.10
516;DHT22;244;48.508;9.052;2023-06-14T07:12:56;18.00;1.00
516;DHT22;244;48.508;9.052;2023-06-14T07:15:23;18.10;1.00
516;DHT22;244;48.508;9.052;2023-06-14T07:17:50;18.20;1.00
516;DHT22;244;48.508;9.052;2023-06-14T07:20:18;18.30;1.00
516;DHT22;244;48.508;9.052;2023-06-14T07:22:46;18.40;1.00
516;DHT22;244;48.508;9.052;2023-06-14T07:25:15;18.50;1.00
516;DHT22;244;48.508;9.052;2023-06-14T07:27:46;18.60;1.00
516;DHT22;244;48.508;9.052;2023-06-14T07:30:13;18.70;1.00
516;DHT22;244;48.508;9.052;2023-06-14T07:32:40;18.80;1.00
516;DHT22;244;48.508;9.052;2023-06-14T07:35:07;19.00;1.00
516;DHT22;244;48.508;9.052;2023-06-14T07:37:34;19.10;1.00
516;DHT22;244;48.508;9.052;2023-06-14T07:40:02;19.20;1.00
516;DHT22;244;48.508;9.052;2023-06-14T07:42:33;19.30;1.00
516;DHT22;244;48.508;9.052;2023-06-14T07:45:01;19.40;1.00
516;DHT22;244;48.508;9.052;2023-06-14T07:47:28;19.50;1.00
516;DHT22;244;48.508;9.052;2023-06-14T07:49:55;19.60;1.00
516;DHT22;244;48.508;9.052;2023-06-14T07:52:22;19.70;1.00
516;DHT22;244;48.508;9.052;2023-06-14T07:54:48;19.80;1.00
516;DHT22;244;48.508;9.052;2023-06-14T07:57:15;19.90;1.00
516;DHT22;244;48.508;9.052;2023-06-14T07:59:43;20.00;1.00
516;DHT22;244;48.508;9.052;2023-06-14T08:02:10;20.10;1.00
516;DHT22;244;48.508;9.052;2023-06-14T08:04:37;20.20;1.00
516;DHT22;244;48.508;9.052;2023-06-14T08:07:04;20.30;1.00
516;DHT22;244;48.508;9.052;2023-06-14T08:09:32;20.40;1.00
516;DHT22;244;48.508;9.052;2023-06-14T08:11:59;20.50;1.00
516;DHT22;244;48.508;9.052;2023-06-14T08:14:26;20.60;1.00
516;DHT22;244;48.508;9.052;2023-06-14T08:16:55;20.60;1.00
516;DHT22;244;48.508;9.052;2023-06-14T08:19:22;20.70;1.00
516;DHT22;244;48.508;9.052;2023-06-14T08:21:49;20.80;1.00
516;DHT22;244;48.508;9.052;2023-06-14T08:24:16;20.80;1.00
516;DHT22;244;48.508;9.052;2023-06-14T08:26:44;20.90;1.00
516;DHT22;244;48.508;9.052;2023-06-14T08:29:11;21.00;1.00
516;DHT22;244;48.508;9.052;2023-06-14T08:31:38;21.10;1.00
516;DHT22;244;48.508;9.052;2023-06-14T08:34:06;21.20;1.00
516;DHT22;244;48.508;9.052;2023-06-14T08:36:33;21.30;1.00
516;DHT22;244;48.508;9.052;2023-06-14T08:39:01;21.40;1.00
516;DHT22;244;48.508;9.052;2023-06-14T08:41:28;21.50;1.00
516;DHT22;244;48.508;9.052;2023-06-14T08:43:56;21.60;1.00
516;DHT22;244;48.508;9.052;2023-06-14T08:46:25;21.70;1.00
516;DHT22;244;48.508;9.052;2023-06-14T08:48:55;21.80;1.00
516;DHT22;244;48.508;9.052;2023-06-14T08:51:25;21.80;1.00
516;DHT22;244;48.508;9.052;2023-06-14T08:53:59;21.90;1.00
516;DHT22;244;48.508;9.052;2023-06-14T08:56:28;22.00;1.00
516;DHT22;244;48.508;9.052;2023-06-14T08:58:56;22.10;1.00
516;DHT22;244;48.508;9.052;2023-06-14T09:01:23;22.10;1.00
516;DHT22;244;48.508;9.052;2023-06-14T09:03:50;22.20;1.00
516;DHT22;244;48.508;9.052;2023-06-14T09:06:17;22.30;1.00
516;DHT22;244;48.508;9.052;2023-06-14T09:08:46;22.40;1.00
516;DHT22;244;48.508;9.052;2023-06-14T09:11:15;22.50;1.00
516;DHT22;244;48.508;9.052;2023-06-14T09:13:45;22.50;1.00
516;DHT22;244;48.508;9.052;2023-06-14T09:16:12;22.60;1.00
516;DHT22;244;48.508;9.052;2023-06-14T09:18:41;22.60;1.00
516;DHT22;244;48.508;9.052;2023-06-14T09:21:09;22.70;1.00
516;DHT22;244;48.508;9.052;2023-06-14T09:23:37;22.70;1.00
516;DHT22;244;48.508;9.052;2023-06-14T09:26:10;22.80;1.00
516;DHT22;244;48.508;9.052;2023-06-14T09:28:41;22.90;1.00
516;DHT22;244;48.508;9.052;2023-06-14T09:31:08;23.00;1.00
516;DHT22;244;48.508;9.052;2023-06-14T09:33:35;23.10;1.00
516;DHT22;244;48.508;9.052;2023-06-14T09:36:03;23.20;1.00
516;DHT22;244;48.508;9.052;2023-06-14T09:38:30;23.30;1.00
516;DHT22;244;48.508;9.052;2023-06-14T09:40:58;23.30;1.00
516;DHT22;244;48.508;9.052;2023-06-14T09:43:26;23.40;1.00
516;DHT22;244;48.508;9.052;2023-06-14T09:45:54;23.40;1.00
516;DHT22;244;48.508;9.052;2023-06-14T09:48:21;23.50;1.00
516;DHT22;244;48.508;9.052;2023-06-14T09:50:50;23.60;1.00
516;DHT22;244;48.508;9.052;2023-06-14T09:53:20;23.60;1.00
516;DHT22;244;48.508;9.052;2023-06-14T09:55:49;23.70;1.00
516;DHT22;244;48.508;9.052;2023-06-14T09:58:16;23.80;1.00
516;DHT22;244;48.508;9.052;2023-06-14T10:00:48;23.90;1.00
516;DHT22;244;48.508;9.052;2023-06-14T10:03:21;24.00;1.00
516;DHT22;244;48.508;9.052;2023-06-14T10:05:50;24.10;1.00
516;DHT22;244;48.508;9.052;2023-06-14T10:08:19;24.20;1.00
516;DHT22;244;48.508;9.052;2023-06-14T10:10:51;24.20;1.00
516;DHT22;244;48.508;9.052;2023-06-14T10:13:18;24.20;1.00
516;DHT22;244;48.508;9.052;2023-06-14T10:15:59;24.30;1.00
516;DHT22;244;48.508;9.052;2023-06-14T10:18:32;24.30;1.00
516;DHT22;244;48.508;9.052;2023-06-14T10:21:05;24.40;1.00
516;DHT22;244;48.508;9.052;2023-06-14T10:23:37;24.40;1.00
516;DHT22;244;48.508;9.052;2023-06-14T10:26:05;24.40;1.00
516;DHT22;244;48.508;9.052;2023-06-14T10:28:32;24.30;1.00
516;DHT22;244;48.508;9.052;2023-06-14T10:31:04;24.30;1.00
516;DHT22;244;48.508;9.052;2023-06-14T10:33:32;24.50;1.00
516;DHT22;244;48.508;9.052;2023-06-14T10:36:10;24.60;1.00
516;DHT22;244;48.508;9.052;2023-06-14T10:38:37;24.70;1.00
516;DHT22;244;48.508;9.052;2023-06-14T10:41:05;24.70;1.00
516;DHT22;244;48.508;9.052;2023-06-14T10:43:33;24.70;1.00
516;DHT22;244;48.508;9.052;2023-06-14T10:46:17;24.70;1.00
516;DHT22;244;48.508;9.052;2023-06-14T10:48:47;24.70;1.00
516;DHT22;244;48.508;9.052;2023-06-14T10:51:18;24.80;1.00
516;DHT22;244;48.508;9.052;2023-06-14T10:53:47;24.90;1.00
516;DHT22;244;48.508;9.052;2023-06-14T10:56:27;25.00;1.00
516;DHT22;244;48.508;9.052;2023-06-14T10:58:54;25.00;1.00
516;DHT22;244;48.508;9.052;2023-06-14T11:01:33;25.00;1.00
516;DHT22;244;48.508;9.052;2023-06-14T11:04:11;25.10;1.00
516;DHT22;244;48.508;9.052;2023-06-14T11:07:04;25.20;1.00
516;DHT22;244;48.508;9.052;2023-06-14T11:09:51;25.50;1.00
516;DHT22;244;48.508;9.052;2023-06-14T11:12:23;25.70;1.00
516;DHT22;244;48.508;9.052;2023-06-14T11:14:52;25.90;1.00
516;DHT22;244;48.508;9.052;2023-06-14T11:17:20;26.00;1.00
516;DHT22;244;48.508;9.052;2023-06-14T11:19:47;26.00;1.00
516;DHT22;244;48.508;9.052;2023-06-14T11:22:13;26.00;1.00
516;DHT22;244;48.508;9.052;2023-06-14T11:24:43;26.10;1.00
516;DHT22;244;48.508;9.052;2023-06-14T11:27:09;26.30;1.00
516;DHT22;244;48.508;9.052;2023-06-14T11:29:36;26.30;1.00
516;DHT22;244;48.508;9.052;2023-06-14T11:32:07;26.30;1.00
516;DHT22;244;48.508;9.052;2023-06-14T11:34:39;26.30;1.00
516;DHT22;244;48.508;9.052;2023-06-14T11:37:06;26.30;1.00
516;DHT22;244;48.508;9.052;2023-06-14T11:39:33;26.20;1.00
516;DHT22;244;48.508;9.052;2023-06-14T11:42:01;26.10;1.00
516;DHT22;244;48.508;9.052;2023-06-14T11:44:29;26.20;1.00
516;DHT22;244;48.508;9.052;2023-06-14T11:46:56;26.30;1.00
516;DHT22;244;48.508;9.052;2023-06-14T11:49:24;26.30;1.00
516;DHT22;244;48.508;9.052;2023-06-14T11:51:54;26.40;1.00
516;DHT22;244;48.508;9.052;2023-06-14T11:54:21;26.40;1.00
516;DHT22;244;48.508;9.052;2023-06-14T11:56:48;26.50;1.00
516;DHT22;244;48.508;9.052;2023-06-14T11:59:15;26.50;1.00
516;DHT22;244;48.508;9.052;2023-06-14T12:01:43;26.60;1.00
516;DHT22;244;48.508;9.052;2023-06-14T12:04:10;26.60;1.00
516;DHT22;244;48.508;9.052;2023-06-14T12:06:37;26.50;1.00
516;DHT22;244;48.508;9.052;2023-06-14T12:09:06;26.50;1.00
516;DHT22;244;48.508;9.052;2023-06-14T12:11:38;26.50;1.00
516;DHT22;244;48.508;9.052;2023-06-14T12:14:06;26.60;1.00
516;DHT22;244;48.508;9.052;2023-06-14T12:16:33;26.60;1.00
516;DHT22;244;48.508;9.052;2023-06-14T12:19:07;26.80;1.00
516;DHT22;244;48.508;9.052;2023-06-14T12:21:37;26.90;1.00
516;DHT22;244;48.508;9.052;2023-06-14T12:24:07;26.90;1.00
516;DHT22;244;48.508;9.052;2023-06-14T12:26:38;27.10;1.00
516;DHT22;244;48.508;9.052;2023-06-14T12:29:05;27.10;1.00
516;DHT22;244;48.508;9.052;2023-06-14T12:31:33;27.10;1.00
516;DHT22;244;48.508;9.052;2023-06-14T12:34:00;27.20;1.00
516;DHT22;244;48.508;9.052;2023-06-14T12:36:27;27.20;1.00
516;DHT22;244;48.508;9.052;2023-06-14T12:38:54;27.30;1.00
516;DHT22;244;48.508;9.052;2023-06-14T12:41:22;27.30;1.00
516;DHT22;244;48.508;9.052;2023-06-14T12:43:50;27.20;1.00
516;DHT22;244;48.508;9.052;2023-06-14T12:46:17;27.10;1.00
516;DHT22;244;48.508;9.052;2023-06-14T12:48:44;27.10;1.00
516;DHT22;244;48.508;9.052;2023-06-14T12:51:11;27.20;1.00
516;DHT22;244;48.508;9.052;2023-06-14T12:53:37;27.20;1.00
516;DHT22;244;48.508;9.052;2023-06-14T12:56:05;27.20;1.00
516;DHT22;244;48.508;9.052;2023-06-14T12:58:33;27.30;1.00
516;DHT22;244;48.508;9.052;2023-06-14T13:01:00;27.40;1.00
516;DHT22;244;48.508;9.052;2023-06-14T13:03:27;27.50;1.00
516;DHT22;244;48.508;9.052;2023-06-14T13:05:54;27.60;1.00
516;DHT22;244;48.508;9.052;2023-06-14T13:08:21;27.70;1.00
516;DHT22;244;48.508;9.052;2023-06-14T13:10:48;27.70;1.00
516;DHT22;244;48.508;9.052;2023-06-14T13:13:15;27.90;1.00
516;DHT22;244;48.508;9.052;2023-06-14T13:15:43;28.00;1.00
516;DHT22;244;48.508;9.052;2023-06-14T13:18:11;28.10;1.00
516;DHT22;244;48.508;9.052;2023-06-14T13:20:38;28.20;1.00
516;DHT22;244;48.508;9.052;2023-06-14T13:23:05;28.10;1.00
516;DHT22;244;48.508;9.052;2023-06-14T13:25:33;28.10;1.00
516;DHT22;244;48.508;9.052;2023-06-14T13:27:59;28.20;1.00
516;DHT22;244;48.508;9.052;2023-06-14T13:30:26;28.40;1.00
516;DHT22;244;48.508;9.052;2023-06-14T13:32:55;28.50;1.00
516;DHT22;244;48.508;9.052;2023-06-14T13:35:23;28.40;1.00
516;DHT22;244;48.508;9.052;2023-06-14T13:37:50;28.20;1.00
516;DHT22;244;48.508;9.052;2023-06-14T13:40:17;28.00;1.00
516;DHT22;244;48.508;9.052;2023-06-14T13:42:44;27.90;1.00
516;DHT22;244;48.508;9.052;2023-06-14T13:45:11;27.90;1.00
516;DHT22;244;48.508;9.052;2023-06-14T13:47:38;28.00;1.00
516;DHT22;244;48.508;9.052;2023-06-14T13:50:07;28.20;1.00
516;DHT22;244;48.508;9.052;2023-06-14T13:52:34;28.90;1.00
516;DHT22;244;48.508;9.052;2023-06-14T13:55:01;29.70;1.00
516;DHT22;244;48.508;9.052;2023-06-14T13:57:28;30.30;1.00
516;DHT22;244;48.508;9.052;2023-06-14T13:59:55;30.70;1.00
516;DHT22;244;48.508;9.052;2023-06-14T14:02:26;31.10;1.00
516;DHT22;244;48.508;9.052;2023-06-14T14:04:54;31.40;1.00
516;DHT22;244;48.508;9.052;2023-06-14T14:07:22;31.70;1.00
516;DHT22;244;48.508;9.052;2023-06-14T14:09:49;31.50;1.00
516;DHT22;244;48.508;9.052;2023-06-14T14:12:16;31.70;1.00
516;DHT22;244;48.508;9.052;2023-06-14T14:14:43;31.70;1.00
516;DHT22;244;48.508;9.052;2023-06-14T14:17:10;31.50;1.00
516;DHT22;244;48.508;9.052;2023-06-14T14:19:37;31.40;1.00
516;DHT22;244;48.508;9.052;2023-06-14T14:22:04;31.50;1.00
516;DHT22;244;48.508;9.052;2023-06-14T14:24:33;31.40;1.00
516;DHT22;244;48.508;9.052;2023-06-14T14:27:00;31.10;1.00
516;DHT22;244;48.508;9.052;2023-06-14T14:29:26;31.10;1.00
516;DHT22;244;48.508;9.052;2023-06-14T14:31:54;31.20;1.00
516;DHT22;244;48.508;9.052;2023-06-14T14:34:21;31.30;1.00
516;DHT22;244;48.508;9.052;2023-06-14T14:36:49;31.20;1.00
516;DHT22;244;48.508;9.052;2023-06-14T14:39:15;31.10;1.00
516;DHT22;244;48.508;9.052;2023-06-14T14:41:44;30.80;1.00
516;DHT22;244;48.508;9.052;2023-06-14T14:44:10;30.60;1.00
516;DHT22;244;48.508;9.052;2023-06-14T14:46:37;30.50;1.00
516;DHT22;244;48.508;9.052;2023-06-14T14:49:04;30.10;1.00
516;DHT22;244;48.508;9.052;2023-06-14T14:51:31;29.70;1.00
516;DHT22;244;48.508;9.052;2023-06-14T14:53:58;29.40;1.00
516;DHT22;244;48.508;9.052;2023-06-14T14:56:25;29.10;1.00
516;DHT22;244;48.508;9.052;2023-06-14T14:58:54;28.80;1.00
516;DHT22;244;48.508;9.052;2023-06-14T15:01:21;28.40;1.00
516;DHT22;244;48.508;9.052;2023-06-14T15:03:48;28.30;1.00
516;DHT22;244;48.508;9.052;2023-06-14T15:06:15;28.40;1.00
516;DHT22;244;48.508;9.052;2023-06-14T15:08:43;28.60;1.00
516;DHT22;244;48.508;9.052;2023-06-14T15:11:10;28.90;1.00
516;DHT22;244;48.508;9.052;2023-06-14T15:13:37;29.20;1.00
516;DHT22;244;48.508;9.052;2023-06-14T15:16:05;29.50;1.00
516;DHT22;244;48.508;9.052;2023-06-14T15:18:32;29.70;1.00
516;DHT22;244;48.508;9.052;2023-06-14T15:20:59;30.00;1.00
516;DHT22;244;48.508;9.052;2023-06-14T15:23:25;30.20;1.00
516;DHT22;244;48.508;9.052;2023-06-14T15:25:52;30.40;1.00
516;DHT22;244;48.508;9.052;2023-06-14T15:28:19;30.50;1.00
516;DHT22;244;48.508;9.052;2023-06-14T15:30:47;30.60;1.00
516;DHT22;244;48.508;9.052;2023-06-14T15:33:15;30.70;1.00
516;DHT22;244;48.508;9.052;2023-06-14T15:35:42;30.90;1.00
516;DHT22;244;48.508;9.052;2023-06-14T15:38:09;31.00;1.00
516;DHT22;244;48.508;9.052;2023-06-14T15:40:35;31.10;1.00
516;DHT22;244;48.508;9.052;2023-06-14T15:43:02;31.30;1.00
516;DHT22;244;48.508;9.052;2023-06-14T15:45:30;31.50;1.00
516;DHT22;244;48.508;9.052;2023-06-14T15:47:57;31.60;1.00
516;DHT22;244;48.508;9.052;2023-06-14T15:50:25;31.80;1.00
516;DHT22;244;48.508;9.052;2023-06-14T15:52:52;31.80;1.00
516;DHT22;244;48.508;9.052;2023-06-14T15:55:19;31.50;1.00
516;DHT22;244;48.508;9.052;2023-06-14T15:57:46;31.30;1.00
516;DHT22;244;48.508;9.052;2023-06-14T16:00:13;31.10;1.00
516;DHT22;244;48.508;9.052;2023-06-14T16:02:42;31.10;1.00
516;DHT22;244;48.508;9.052;2023-06-14T16:05:09;31.20;1.00
516;DHT22;244;48.508;9.052;2023-06-14T16:07:37;31.40;1.00
516;DHT22;244;48.508;9.052;2023-06-14T16:10:04;31.60;1.00
516;DHT22;244;48.508;9.052;2023-06-14T16:12:31;31.70;1.00
516;DHT22;244;48.508;9.052;2023-06-14T16:14:58;31.90;1.00
516;DHT22;244;48.508;9.052;2023-06-14T16:17:25;32.10;1.00
516;DHT22;244;48.508;9.052;2023-06-14T16:19:52;32.20;1.00
516;DHT22;244;48.508;9.052;2023-06-14T16:22:19;32.20;1.00
516;DHT22;244;48.508;9.052;2023-06-14T16:24:48;32.30;1.00
516;DHT22;244;48.508;9.052;2023-06-14T16:27:15;32.40;1.00
516;DHT22;244;48.508;9.052;2023-06-14T16:29:41;32.10;1.00
516;DHT22;244;48.508;9.052;2023-06-14T16:32:08;32.00;1.00
516;DHT22;244;48.508;9.052;2023-06-14T16:34:35;31.90;1.00
516;DHT22;244;48.508;9.052;2023-06-14T16:37:04;31.70;1.00
516;DHT22;244;48.508;9.052;2023-06-14T16:39:31;31.50;1.00
516;DHT22;244;48.508;9.052;2023-06-14T16:42:00;31.40;1.00
516;DHT22;244;48.508;9.052;2023-06-14T16:44:26;31.20;1.00
516;DHT22;244;48.508;9.052;2023-06-14T16:46:53;31.10;1.00
516;DHT22;244;48.508;9.052;2023-06-14T16:49:21;31.00;1.00
516;DHT22;244;48.508;9.052;2023-06-14T16:51:48;30.80;1.00
516;DHT22;244;48.508;9.052;2023-06-14T16:54:15;30.60;1.00
516;DHT22;244;48.508;9.052;2023-06-14T16:56:42;30.50;1.00